createdAt,value
2022-12-08T00:01:13.735Z,100.00
2022-12-08T00:03:42.118Z,100.00
2022-12-08T00:06:47.431Z,100.00
2022-12-08T00:09:21.914Z,100.00
2022-12-08T00:11:59.843Z,100.00
2022-12-08T00:14:32.882Z,100.00
2022-12-08T00:17:01.311Z,100.00
2022-12-08T00:19:29.242Z,100.00
2022-12-08T00:21:57.184Z,100.00
2022-12-08T00:24:26.211Z,100.00
2022-12-08T00:26:53.588Z,100.00
2022-12-08T00:29:20.968Z,100.00
2022-12-08T00:31:48.322Z,100.00
2022-12-08T00:34:16.276Z,100.00
2022-12-08T00:36:43.991Z,100.00
2022-12-08T00:39:12.735Z,100.00
2022-12-08T00:41:58.573Z,100.00
2022-12-08T00:44:26.073Z,100.00
2022-12-08T00:46:53.273Z,100.00
2022-12-08T00:49:20.932Z,100.00
2022-12-08T00:51:48.208Z,100.00
2022-12-08T00:54:15.772Z,100.00
2022-12-08T00:56:43.157Z,100.00
2022-12-08T00:59:10.463Z,100.00
2022-12-08T01:01:37.981Z,100.00
2022-12-08T01:04:12.085Z,100.00
2022-12-08T01:06:39.427Z,100.00
2022-12-08T01:09:08.165Z,100.00
2022-12-08T01:11:36.664Z,100.00
2022-12-08T01:14:04.161Z,100.00
2022-12-08T01:16:32.951Z,100.00
2022-12-08T01:19:00.074Z,100.00
2022-12-08T01:21:27.797Z,100.00
2022-12-08T01:23:55.711Z,100.00
2022-12-08T01:26:22.784Z,100.00
2022-12-08T01:28:49.960Z,100.00
2022-12-08T01:31:18.799Z,100.00
2022-12-08T01:33:46.449Z,100.00
2022-12-08T01:36:26.861Z,100.00
2022-12-08T01:38:54.654Z,100.00
2022-12-08T01:41:25.098Z,100.00
2022-12-08T01:43:58.274Z,100.00
2022-12-08T01:46:26.216Z,100.00
2022-12-08T01:48:56.373Z,100.00
2022-12-08T01:51:23.746Z,100.00
2022-12-08T01:53:51.147Z,100.00
2022-12-08T01:56:27.965Z,100.00
2022-12-08T01:58:55.658Z,100.00
2022-12-08T02:01:23.091Z,100.00
2022-12-08T02:03:54.118Z,100.00
2022-12-08T02:06:21.403Z,100.00
2022-12-08T02:08:49.760Z,100.00
2022-12-08T02:11:16.915Z,100.00
2022-12-08T02:13:46.155Z,100.00
2022-12-08T02:16:25.479Z,100.00
2022-12-08T02:19:29.807Z,100.00
2022-12-08T02:22:18.158Z,100.00
2022-12-08T02:25:03.437Z,100.00
2022-12-08T02:27:49.863Z,100.00
2022-12-08T02:30:25.189Z,100.00
2022-12-08T02:33:04.340Z,100.00
2022-12-08T02:35:50.462Z,100.00
2022-12-08T02:38:17.511Z,100.00
2022-12-08T02:40:44.556Z,100.00
2022-12-08T02:43:17.538Z,100.00
2022-12-08T02:45:48.750Z,100.00
2022-12-08T02:48:15.878Z,100.00
2022-12-08T02:50:42.881Z,100.00
2022-12-08T02:56:00.392Z,100.00
2022-12-08T02:58:47.872Z,100.00
2022-12-08T03:01:40.260Z,100.00
2022-12-08T03:04:16.708Z,100.00
2022-12-08T03:06:59.552Z,100.00
2022-12-08T03:09:33.962Z,100.00
2022-12-08T03:12:10.445Z,100.00
2022-12-08T03:14:38.944Z,100.00
2022-12-08T03:17:07.015Z,100.00
2022-12-08T03:19:35.549Z,100.00
2022-12-08T03:22:04.723Z,100.00
2022-12-08T03:24:37.028Z,100.00
2022-12-08T03:27:07.177Z,100.00
2022-12-08T03:29:34.588Z,100.00
2022-12-08T03:32:07.879Z,100.00
2022-12-08T03:34:35.905Z,100.00
2022-12-08T03:37:03.030Z,100.00
2022-12-08T03:39:30.239Z,100.00
2022-12-08T03:41:57.353Z,100.00
2022-12-08T03:44:24.404Z,100.00
2022-12-08T03:46:51.594Z,100.00
2022-12-08T03:49:18.659Z,100.00
2022-12-08T03:51:45.799Z,100.00
2022-12-08T03:54:13.190Z,100.00
2022-12-08T03:56:40.200Z,100.00
2022-12-08T03:59:07.640Z,100.00
2022-12-08T04:01:34.792Z,100.00
2022-12-08T04:04:01.998Z,100.00
2022-12-08T04:06:29.070Z,100.00
2022-12-08T04:08:56.245Z,100.00
2022-12-08T04:11:23.293Z,100.00
2022-12-08T04:13:50.477Z,100.00
2022-12-08T04:16:19.221Z,100.00
2022-12-08T04:18:46.828Z,100.00
2022-12-08T04:21:14.233Z,100.00
2022-12-08T04:23:41.386Z,100.00
2022-12-08T04:26:08.711Z,100.00
2022-12-08T04:28:35.864Z,100.00
2022-12-08T04:31:03.225Z,100.00
2022-12-08T04:33:30.408Z,100.00
2022-12-08T04:35:57.667Z,100.00
2022-12-08T04:38:24.902Z,100.00
2022-12-08T04:40:51.907Z,100.00
2022-12-08T04:43:19.072Z,100.00
2022-12-08T04:45:46.403Z,100.00
2022-12-08T04:48:13.471Z,100.00
2022-12-08T04:50:41.926Z,100.00
2022-12-08T04:53:09.808Z,100.00
2022-12-08T04:55:44.895Z,100.00
2022-12-08T04:58:13.768Z,100.00
2022-12-08T05:00:40.972Z,100.00
2022-12-08T05:03:08.192Z,100.00
2022-12-08T05:05:35.275Z,100.00
2022-12-08T05:08:02.596Z,100.00
2022-12-08T05:10:29.674Z,100.00
2022-12-08T05:12:58.121Z,100.00
2022-12-08T05:15:25.624Z,100.00
2022-12-08T05:17:52.776Z,100.00
2022-12-08T05:20:19.959Z,100.00
2022-12-08T05:22:47.162Z,100.00
2022-12-08T05:25:14.908Z,100.00
2022-12-08T05:27:43.062Z,100.00
2022-12-08T05:30:10.252Z,100.00
2022-12-08T05:32:37.322Z,100.00
2022-12-08T05:35:04.584Z,100.00
2022-12-08T05:37:31.608Z,100.00
2022-12-08T05:39:58.738Z,100.00
2022-12-08T05:42:25.826Z,100.00
2022-12-08T05:44:52.877Z,100.00
2022-12-08T05:47:19.998Z,100.00
2022-12-08T05:49:47.078Z,100.00
2022-12-08T05:52:14.360Z,100.00
2022-12-08T05:54:41.357Z,100.00
2022-12-08T05:57:08.940Z,100.00
2022-12-08T05:59:36.988Z,100.00
2022-12-08T06:02:04.234Z,100.00
2022-12-08T06:04:31.390Z,100.00
2022-12-08T06:06:58.463Z,100.00
2022-12-08T06:09:25.474Z,100.00
2022-12-08T06:11:52.635Z,100.00
2022-12-08T06:14:19.715Z,100.00
2022-12-08T06:16:46.968Z,100.00
2022-12-08T06:19:14.088Z,100.00
2022-12-08T06:21:41.279Z,100.00
2022-12-08T06:24:08.435Z,100.00
2022-12-08T06:26:36.102Z,100.00
2022-12-08T06:29:04.843Z,100.00
2022-12-08T06:31:31.960Z,100.00
2022-12-08T06:33:59.145Z,100.00
2022-12-08T06:36:28.326Z,100.00
2022-12-08T06:38:56.083Z,100.00
2022-12-08T06:41:23.756Z,100.00
2022-12-08T06:43:51.158Z,100.00
2022-12-08T06:46:20.150Z,100.00
2022-12-08T06:48:48.874Z,100.00
2022-12-08T06:51:40.039Z,100.00
2022-12-08T06:54:07.625Z,100.00
2022-12-08T06:56:35.605Z,100.00
2022-12-08T06:59:03.900Z,100.00
2022-12-08T07:01:31.425Z,100.00
2022-12-08T07:03:58.777Z,100.00
2022-12-08T07:06:26.099Z,100.00
2022-12-08T07:08:53.361Z,100.00
2022-12-08T07:11:22.807Z,100.00
2022-12-08T07:13:51.846Z,100.00
2022-12-08T07:16:19.249Z,100.00
2022-12-08T07:18:46.690Z,100.00
2022-12-08T07:21:17.679Z,100.00
2022-12-08T07:23:49.257Z,100.00
2022-12-08T07:26:18.873Z,100.00
2022-12-08T07:28:49.634Z,100.00
2022-12-08T07:31:27.177Z,100.00
2022-12-08T07:33:57.640Z,100.00
2022-12-08T07:36:25.758Z,100.00
2022-12-08T07:38:55.836Z,100.00
2022-12-08T07:41:25.669Z,100.00
2022-12-08T07:43:56.876Z,100.00
2022-12-08T07:46:25.774Z,100.00
2022-12-08T07:48:54.628Z,100.00
2022-12-08T07:51:21.968Z,100.00
2022-12-08T07:53:53.684Z,100.00
2022-12-08T07:56:21.740Z,100.00
2022-12-08T07:58:48.937Z,100.00
2022-12-08T08:01:20.564Z,100.00
2022-12-08T08:03:47.851Z,100.00
2022-12-08T08:06:15.003Z,100.00
2022-12-08T08:08:42.217Z,100.00
2022-12-08T08:11:17.449Z,100.00
2022-12-08T08:13:48.277Z,100.00
2022-12-08T08:16:15.830Z,100.00
2022-12-08T08:18:43.614Z,100.00
2022-12-08T08:23:57.884Z,100.00
2022-12-08T08:26:25.774Z,100.00
2022-12-08T08:28:55.847Z,100.00
2022-12-08T08:31:27.212Z,100.00
2022-12-08T08:33:55.732Z,100.00
2022-12-08T08:36:23.004Z,100.00
2022-12-08T08:38:52.230Z,100.00
2022-12-08T08:41:19.476Z,100.00
2022-12-08T08:43:46.624Z,100.00
2022-12-08T08:46:16.802Z,100.00
2022-12-08T08:48:44.568Z,100.00
2022-12-08T08:51:14.958Z,100.00
2022-12-08T08:53:43.881Z,100.00
2022-12-08T08:56:15.201Z,100.00
2022-12-08T08:58:42.376Z,100.00
2022-12-08T09:01:15.102Z,100.00
2022-12-08T09:03:42.180Z,100.00
2022-12-08T09:06:11.186Z,100.00
2022-12-08T09:08:38.420Z,100.00
2022-12-08T09:11:05.643Z,98.25
2022-12-08T09:13:33.104Z,96.83
2022-12-08T09:16:02.009Z,95.04
2022-12-08T09:18:29.389Z,92.64
2022-12-08T09:20:56.710Z,91.55
2022-12-08T09:23:30.785Z,90.56
2022-12-08T09:26:05.196Z,92.49
2022-12-08T09:28:32.859Z,92.52
2022-12-08T09:31:07.140Z,90.83
2022-12-08T09:33:38.415Z,89.54
2022-12-08T09:36:05.746Z,88.57
2022-12-08T09:38:32.825Z,87.14
2022-12-08T09:41:03.309Z,88.96
2022-12-08T09:43:33.525Z,89.78
2022-12-08T09:46:02.130Z,89.31
2022-12-08T09:48:33.233Z,90.41
2022-12-08T09:51:03.352Z,87.49
2022-12-08T09:53:42.387Z,89.23
2022-12-08T09:56:16.826Z,88.52
2022-12-08T09:59:10.730Z,87.23
2022-12-08T10:01:41.808Z,91.25
2022-12-08T10:04:33.339Z,90.56
2022-12-08T10:07:20.385Z,92.13
2022-12-08T10:09:54.729Z,89.85
2022-12-08T10:12:21.878Z,90.79
2022-12-08T10:14:58.123Z,91.30
2022-12-08T10:17:27.538Z,89.98
2022-12-08T10:19:57.819Z,90.15
2022-12-08T10:22:39.867Z,91.78
2022-12-08T10:28:42.972Z,90.63
2022-12-08T10:31:26.293Z,91.32
2022-12-08T10:33:57.791Z,89.35
2022-12-08T10:36:43.865Z,90.00
2022-12-08T10:39:29.719Z,90.26
2022-12-08T10:42:20.224Z,90.78
2022-12-08T10:44:50.222Z,89.75
2022-12-08T10:47:21.371Z,92.58
2022-12-08T10:50:07.380Z,93.80
2022-12-08T10:52:39.188Z,95.64
2022-12-08T10:55:21.524Z,96.15
2022-12-08T10:57:50.744Z,96.02
2022-12-08T11:00:20.248Z,95.16
2022-12-08T11:02:56.546Z,96.22
2022-12-08T11:05:26.263Z,94.47
2022-12-08T11:07:55.084Z,96.43
2022-12-08T11:10:28.960Z,96.32
2022-12-08T11:12:58.956Z,96.13
2022-12-08T11:15:26.604Z,96.21
2022-12-08T11:18:01.076Z,96.47
2022-12-08T11:20:29.181Z,96.70
2022-12-08T11:22:56.577Z,97.08
2022-12-08T11:25:25.854Z,97.20
2022-12-08T11:27:54.623Z,94.45
2022-12-08T11:30:29.676Z,93.50
2022-12-08T11:33:15.340Z,94.08
2022-12-08T11:35:47.956Z,93.79
2022-12-08T11:38:22.170Z,92.76
2022-12-08T11:40:51.997Z,92.43
2022-12-08T11:43:26.101Z,92.64
2022-12-08T11:45:58.924Z,93.53
2022-12-08T11:49:05.868Z,93.11
2022-12-08T11:51:38.150Z,92.00
2022-12-08T11:54:11.009Z,92.68
2022-12-08T11:59:27.093Z,93.78
2022-12-08T12:01:57.443Z,93.88
2022-12-08T12:04:29.828Z,93.31
2022-12-08T12:07:26.356Z,94.47
2022-12-08T12:10:10.408Z,94.90
2022-12-08T12:12:51.041Z,97.74
2022-12-08T12:15:38.429Z,97.35
2022-12-08T12:18:16.814Z,98.20
2022-12-08T12:20:53.409Z,98.30
2022-12-08T12:23:23.210Z,98.31
2022-12-08T12:25:58.810Z,97.69
2022-12-08T12:31:16.600Z,98.15
2022-12-08T12:33:47.028Z,98.46
2022-12-08T12:36:16.707Z,98.24
2022-12-08T12:39:03.241Z,98.67
2022-12-08T12:41:44.207Z,96.99
2022-12-08T12:44:14.283Z,96.19
2022-12-08T12:46:41.652Z,96.34
2022-12-08T12:49:27.915Z,96.21
2022-12-08T12:51:55.649Z,97.64
2022-12-08T12:54:24.386Z,97.69
2022-12-08T12:56:53.483Z,98.16
2022-12-08T12:59:39.882Z,99.39
2022-12-08T13:02:16.737Z,98.19
2022-12-08T13:04:46.860Z,97.87
2022-12-08T13:07:21.875Z,96.94
2022-12-08T13:09:55.770Z,97.45
2022-12-08T13:12:24.412Z,97.78
2022-12-08T13:14:53.412Z,96.46
2022-12-08T13:17:31.954Z,96.64
2022-12-08T13:20:01.270Z,97.02
2022-12-08T13:22:47.168Z,96.06
2022-12-08T13:25:36.772Z,97.11
2022-12-08T13:28:18.809Z,97.84
2022-12-08T13:30:47.272Z,98.17
2022-12-08T13:33:38.731Z,98.40
2022-12-08T13:36:17.553Z,98.32
2022-12-08T13:38:46.255Z,97.93
2022-12-08T13:41:18.242Z,97.50
2022-12-08T13:44:57.103Z,98.07
2022-12-08T13:53:49.125Z,97.44
2022-12-08T13:59:17.989Z,98.35
2022-12-08T14:01:46.507Z,98.16
2022-12-08T14:07:07.654Z,98.49
2022-12-08T14:09:38.587Z,98.65
2022-12-08T14:12:10.475Z,98.69
2022-12-08T14:17:30.131Z,98.04
2022-12-08T14:20:06.761Z,98.33
2022-12-08T14:22:35.153Z,98.46
2022-12-08T14:25:06.191Z,98.21
2022-12-08T14:27:38.225Z,99.12
2022-12-08T14:30:19.913Z,98.96
2022-12-08T14:32:48.960Z,99.73
2022-12-08T14:35:22.223Z,100.00
2022-12-08T14:37:51.701Z,100.00
2022-12-08T14:40:22.934Z,100.00
2022-12-08T14:42:55.399Z,100.00
2022-12-08T14:45:22.751Z,100.00
2022-12-08T14:47:51.163Z,100.00
2022-12-08T14:50:38.947Z,100.00
2022-12-08T14:53:18.234Z,100.00
2022-12-08T14:55:46.639Z,100.00
2022-12-08T14:58:28.856Z,100.00
2022-12-08T15:00:58.947Z,100.00
2022-12-08T15:03:29.697Z,100.00
2022-12-08T15:06:31.422Z,100.00
2022-12-08T15:09:10.216Z,100.00
2022-12-08T15:11:37.615Z,100.00
2022-12-08T15:14:27.565Z,100.00
2022-12-08T15:16:55.878Z,100.00
2022-12-08T15:19:28.399Z,100.00
2022-12-08T15:21:57.131Z,100.00
2022-12-08T15:24:26.343Z,100.00
2022-12-08T15:26:55.097Z,100.00
2022-12-08T15:29:27.001Z,100.00
2022-12-08T15:31:55.906Z,100.00
2022-12-08T15:34:24.406Z,100.00
2022-12-08T15:36:52.413Z,100.00
2022-12-08T15:39:32.156Z,100.00
2022-12-08T15:41:59.971Z,100.00
2022-12-08T15:44:27.354Z,100.00
2022-12-08T15:46:54.958Z,100.00
2022-12-08T15:49:23.941Z,100.00
2022-12-08T15:51:55.695Z,100.00
2022-12-08T15:54:28.114Z,100.00
2022-12-08T15:57:18.627Z,100.00
2022-12-08T15:59:45.252Z,100.00
2022-12-08T16:02:20.898Z,100.00
2022-12-08T16:07:38.493Z,100.00
2022-12-08T16:10:07.114Z,100.00
2022-12-08T16:16:00.829Z,100.00
2022-12-08T16:18:30.071Z,100.00
2022-12-08T16:21:31.597Z,100.00
2022-12-08T16:23:46.142Z,100.00
2022-12-08T16:27:06.940Z,100.00
2022-12-08T16:29:05.462Z,100.00
2022-12-08T16:31:32.866Z,100.00
2022-12-08T16:34:01.939Z,100.00
2022-12-08T16:36:29.286Z,100.00
2022-12-08T16:38:56.777Z,100.00
2022-12-08T16:41:42.774Z,100.00
2022-12-08T16:44:10.296Z,100.00
2022-12-08T16:46:38.502Z,100.00
2022-12-08T16:49:09.448Z,100.00
2022-12-08T16:51:36.633Z,100.00
2022-12-08T16:54:03.996Z,100.00
2022-12-08T16:56:33.516Z,100.00
2022-12-08T16:59:02.199Z,100.00
2022-12-08T17:01:30.211Z,100.00
2022-12-08T17:06:45.876Z,100.00
2022-12-08T17:09:13.070Z,100.00
2022-12-08T17:11:43.346Z,100.00
2022-12-08T17:14:15.637Z,100.00
2022-12-08T17:16:43.303Z,100.00
2022-12-08T17:19:12.611Z,100.00
2022-12-08T17:21:39.914Z,100.00
2022-12-08T17:24:07.404Z,100.00
2022-12-08T17:26:35.542Z,100.00
2022-12-08T17:29:03.808Z,100.00
2022-12-08T17:31:31.982Z,100.00
2022-12-08T17:34:02.326Z,100.00
2022-12-08T17:36:30.566Z,100.00
2022-12-08T17:38:59.145Z,100.00
2022-12-08T17:41:26.781Z,100.00
2022-12-08T17:43:54.226Z,100.00
2022-12-08T17:46:22.240Z,100.00
2022-12-08T17:48:49.761Z,100.00
2022-12-08T17:51:17.490Z,100.00
2022-12-08T17:53:44.947Z,100.00
2022-12-08T17:56:20.084Z,100.00
2022-12-08T17:58:52.874Z,100.00
2022-12-08T18:01:22.798Z,100.00
2022-12-08T18:03:50.772Z,100.00
2022-12-08T18:06:18.811Z,100.00
2022-12-08T18:08:52.905Z,100.00
2022-12-08T18:11:21.844Z,100.00
2022-12-08T18:13:53.959Z,100.00
2022-12-08T18:16:23.853Z,100.00
2022-12-08T18:18:51.532Z,100.00
2022-12-08T18:21:23.288Z,100.00
2022-12-08T18:23:51.902Z,100.00
2022-12-08T18:26:20.293Z,100.00
2022-12-08T18:28:49.289Z,100.00
2022-12-08T18:31:20.204Z,100.00
2022-12-08T18:33:50.886Z,100.00
2022-12-08T18:36:27.989Z,100.00
2022-12-08T18:38:55.505Z,100.00
2022-12-08T18:41:27.831Z,100.00
2022-12-08T18:43:57.097Z,100.00
2022-12-08T18:46:25.391Z,100.00
2022-12-08T18:48:53.239Z,100.00
2022-12-08T18:51:24.072Z,100.00
2022-12-08T18:53:52.349Z,100.00
2022-12-08T18:56:30.732Z,100.00
2022-12-08T18:59:03.512Z,100.00
2022-12-08T19:01:33.142Z,100.00
2022-12-08T19:06:58.381Z,100.00
2022-12-08T19:09:27.054Z,100.00
2022-12-08T19:11:55.576Z,100.00
2022-12-08T19:14:27.916Z,100.00
2022-12-08T19:17:03.786Z,100.00
2022-12-08T19:19:31.523Z,100.00
2022-12-08T19:22:04.242Z,100.00
2022-12-08T19:24:36.930Z,100.00
2022-12-08T19:27:12.577Z,100.00
2022-12-08T19:29:43.164Z,100.00
2022-12-08T19:32:20.469Z,100.00
2022-12-08T19:34:55.426Z,100.00
2022-12-08T19:37:22.959Z,100.00
2022-12-08T19:40:09.094Z,100.00
2022-12-08T19:42:55.663Z,100.00
2022-12-08T19:45:23.796Z,100.00
2022-12-08T19:47:51.497Z,100.00
2022-12-08T19:50:37.901Z,100.00
2022-12-08T19:53:11.634Z,100.00
2022-12-08T19:55:40.353Z,100.00
2022-12-08T19:58:11.002Z,100.00
2022-12-08T20:00:39.815Z,100.00
2022-12-08T20:03:07.503Z,100.00
2022-12-08T20:05:36.648Z,100.00
2022-12-08T20:08:29.794Z,100.00
2022-12-08T20:10:59.136Z,100.00
2022-12-08T20:13:45.717Z,100.00
2022-12-08T20:16:17.078Z,100.00
2022-12-08T20:18:45.088Z,100.00
2022-12-08T20:21:13.797Z,100.00
2022-12-08T20:23:44.212Z,100.00
2022-12-08T20:26:23.210Z,100.00
2022-12-08T20:28:54.403Z,100.00
2022-12-08T20:31:27.603Z,100.00
2022-12-08T20:33:58.624Z,100.00
2022-12-08T20:36:35.611Z,100.00
2022-12-08T20:42:11.432Z,100.00
2022-12-08T20:44:44.781Z,100.00
2022-12-08T20:47:13.803Z,100.00
2022-12-08T20:50:07.273Z,100.00
2022-12-08T20:52:39.913Z,100.00
2022-12-08T20:55:15.465Z,100.00
2022-12-08T20:57:46.853Z,100.00
2022-12-08T21:00:37.591Z,100.00
2022-12-08T21:03:07.907Z,100.00
2022-12-08T21:06:01.623Z,100.00
2022-12-08T21:08:38.538Z,100.00
2022-12-08T21:11:10.004Z,100.00
2022-12-08T21:13:39.498Z,100.00
2022-12-08T21:16:09.403Z,100.00
2022-12-08T21:18:39.660Z,100.00
2022-12-08T21:21:15.064Z,100.00
2022-12-08T21:23:48.937Z,100.00
2022-12-08T21:26:28.409Z,100.00
2022-12-08T21:28:58.938Z,100.00
2022-12-08T21:31:32.107Z,100.00
2022-12-08T21:34:08.617Z,100.00
2022-12-08T21:36:36.385Z,100.00
2022-12-08T21:39:12.785Z,100.00
2022-12-08T21:42:34.134Z,100.00
2022-12-08T21:45:04.845Z,100.00
2022-12-08T21:47:37.521Z,100.00
2022-12-08T21:50:06.801Z,100.00
2022-12-08T21:52:43.334Z,100.00
2022-12-08T21:55:18.068Z,100.00
2022-12-08T21:57:48.949Z,100.00
2022-12-08T22:00:18.156Z,100.00
2022-12-08T22:02:48.972Z,100.00
2022-12-08T22:05:16.741Z,100.00
2022-12-08T22:07:44.269Z,100.00
2022-12-08T22:10:12.291Z,100.00
2022-12-08T22:12:39.912Z,100.00
2022-12-08T22:15:09.399Z,100.00
2022-12-08T22:17:39.347Z,100.00
2022-12-08T22:20:10.233Z,100.00
2022-12-08T22:22:38.818Z,100.00
2022-12-08T22:25:07.357Z,100.00
2022-12-08T22:27:37.426Z,100.00
2022-12-08T22:30:05.943Z,100.00
2022-12-08T22:32:37.068Z,100.00
2022-12-08T22:35:06.068Z,100.00
2022-12-08T22:37:34.148Z,100.00
2022-12-08T22:40:01.603Z,100.00
2022-12-08T22:42:31.689Z,100.00
2022-12-08T22:44:59.068Z,100.00
2022-12-08T22:47:26.690Z,100.00
2022-12-08T22:49:53.997Z,100.00
2022-12-08T22:52:21.304Z,100.00
2022-12-08T22:54:48.876Z,100.00
2022-12-08T22:57:17.060Z,100.00
2022-12-08T22:59:44.437Z,100.00
2022-12-08T23:02:11.997Z,100.00
2022-12-08T23:04:39.587Z,100.00
2022-12-08T23:07:07.122Z,100.00
2022-12-08T23:09:34.532Z,100.00
2022-12-08T23:12:02.159Z,100.00
2022-12-08T23:14:29.538Z,100.00
2022-12-08T23:16:57.021Z,100.00
2022-12-08T23:19:24.324Z,100.00
2022-12-08T23:21:51.686Z,100.00
2022-12-08T23:24:19.076Z,100.00
2022-12-08T23:26:47.366Z,100.00
2022-12-08T23:29:15.078Z,100.00
2022-12-08T23:31:43.034Z,100.00
2022-12-08T23:34:10.949Z,100.00
2022-12-08T23:36:38.562Z,100.00
2022-12-08T23:39:06.819Z,100.00
2022-12-08T23:41:34.211Z,100.00
2022-12-08T23:44:01.596Z,100.00
2022-12-08T23:46:29.185Z,100.00
2022-12-08T23:48:56.564Z,100.00
2022-12-08T23:51:24.104Z,100.00
2022-12-08T23:53:51.781Z,100.00
2022-12-08T23:56:21.052Z,100.00
2022-12-08T23:58:49.588Z,100.00
